Time;durP1;ratioP1;P1;durP2;ratioP2;P2;SDS_P1;SDS_P2;PMS_P1;PMS_P2;Temp;Humidity;BMP_temperature;BMP_pressure;BME280_temperature;BME280_humidity;BME280_pressure;Samples;Min_cycle;Max_cycle;Signal;HPM_P1;HPM_P2
2021/08/07 00:02:14;;;;;;;11.30;2.60;;;;;;;16.78;78.07;100255.50;5073084;28;20060;-65
2021/08/07 00:04:41;;;;;;;9.73;2.63;;;;;;;16.77;78.57;100250.38;5053040;28;20044;-65
2021/08/07 00:07:08;;;;;;;10.82;3.13;;;;;;;16.61;79.39;100251.63;5072646;28;20072;-65
2021/08/07 00:09:35;;;;;;;7.60;2.70;;;;;;;16.70;80.00;100255.75;5072703;28;20043;-66
2021/08/07 00:12:02;;;;;;;8.63;2.90;;;;;;;16.70;79.50;100261.91;5072512;28;20032;-65
2021/08/07 00:14:29;;;;;;;9.05;2.60;;;;;;;16.77;80.03;100256.56;5055009;28;20066;-65
2021/08/07 00:16:56;;;;;;;8.70;2.65;;;;;;;16.79;79.59;100250.97;5054285;28;20067;-65
2021/08/07 00:19:23;;;;;;;9.70;3.20;;;;;;;16.67;80.96;100253.47;5072472;28;20445;-65
2021/08/07 00:21:49;;;;;;;11.80;3.10;;;;;;;16.70;79.18;100256.56;5072692;28;20036;-65
2021/08/07 00:24:16;;;;;;;7.53;2.60;;;;;;;16.81;78.08;100251.63;5072586;28;20044;-65
2021/08/07 00:26:43;;;;;;;6.88;2.88;;;;;;;16.67;80.91;100246.25;5054413;28;20041;-65
2021/08/07 00:29:11;;;;;;;11.23;3.00;;;;;;;16.68;80.28;100252.41;5072500;28;20378;-65
2021/08/07 00:31:38;;;;;;;11.43;2.95;;;;;;;16.59;79.22;100253.66;5070343;28;20033;-65
2021/08/07 00:34:06;;;;;;;8.18;2.60;;;;;;;16.56;80.19;100248.72;5055083;28;20098;-65
2021/08/07 00:36:34;;;;;;;6.57;2.70;;;;;;;16.68;79.09;100247.06;5072618;28;20052;-65
2021/08/07 00:39:03;;;;;;;9.05;2.80;;;;;;;16.68;80.25;100236.34;5060106;28;20170;-65
2021/08/07 00:41:31;;;;;;;11.35;3.38;;;;;;;16.58;81.33;100233.28;5034277;28;20094;-65
2021/08/07 00:43:59;;;;;;;11.90;3.38;;;;;;;16.54;81.74;100232.88;5034501;28;20041;-66
2021/08/07 00:46:31;;;;;;;7.28;2.60;;;;;;;16.46;81.72;100233.91;5056336;28;20032;-65
2021/08/07 00:48:58;;;;;;;9.27;2.85;;;;;;;16.42;82.12;100224.59;5060206;28;20053;-65
2021/08/07 00:51:27;;;;;;;11.32;3.45;;;;;;;16.38;82.22;100223.38;5038326;28;20418;-65
2021/08/07 00:53:59;;;;;;;11.70;3.05;;;;;;;16.37;81.42;100219.06;5072169;28;20048;-65
2021/08/07 00:56:27;;;;;;;7.50;2.78;;;;;;;16.41;82.26;100219.44;5071968;28;20055;-65
2021/08/07 00:59:04;;;;;;;7.40;2.80;;;;;;;16.37;80.60;100219.06;5072093;28;20056;-65
2021/08/07 01:01:39;;;;;;;8.50;2.55;;;;;;;16.32;80.18;100221.53;5071922;28;20063;-65
2021/08/07 01:04:16;;;;;;;8.70;2.83;;;;;;;16.37;81.73;100218.22;5070595;28;20102;-66
2021/08/07 01:06:53;;;;;;;9.70;2.60;;;;;;;16.16;81.14;100217.38;5054233;28;20093;-65
2021/08/07 01:09:48;;;;;;;9.88;2.88;;;;;;;16.10;82.76;100216.34;5057567;28;20049;-65
2021/08/07 01:12:24;;;;;;;7.07;2.80;;;;;;;16.12;82.93;100216.97;5051226;28;20131;-65
2021/08/07 01:14:56;;;;;;;6.10;2.70;;;;;;;16.05;83.06;100221.47;5072171;28;20051;-65
2021/08/07 01:17:30;;;;;;;8.05;2.53;;;;;;;16.06;82.93;100224.97;5071727;28;20048;-65
2021/08/07 01:25:50;;;;;;;13.27;2.92;;;;;;;16.00;83.74;100215.91;5110129;27;20391;-65
2021/08/07 01:28:28;;;;;;;7.90;2.83;;;;;;;16.02;83.80;100218.38;5110116;28;20040;-66
2021/08/07 01:30:56;;;;;;;9.90;2.90;;;;;;;15.99;83.47;100221.44;5110354;28;20063;-66
2021/08/07 01:33:27;;;;;;;7.13;2.50;;;;;;;15.98;83.92;100217.16;5110695;28;20329;-65
2021/08/07 01:35:58;;;;;;;9.88;2.60;;;;;;;16.00;84.01;100220.44;5110441;28;20048;-66
2021/08/07 01:38:30;;;;;;;6.28;2.70;;;;;;;15.99;84.13;100218.78;5110082;28;20083;-65
2021/08/07 01:41:00;;;;;;;7.20;2.70;;;;;;;16.03;83.26;100228.06;5109263;28;20122;-65
2021/08/07 01:43:29;;;;;;;12.70;2.70;;;;;;;15.96;83.67;100228.03;5109463;28;20039;-65
2021/08/07 01:46:00;;;;;;;9.40;3.00;;;;;;;15.91;83.56;100217.94;5108997;28;20052;-65
2021/08/07 01:48:44;;;;;;;10.30;2.67;;;;;;;15.88;83.24;100218.34;5107064;28;20558;-65
2021/08/07 01:51:31;;;;;;;7.78;3.08;;;;;;;15.79;83.57;100211.53;5110068;28;20044;-65
2021/08/07 01:54:01;;;;;;;11.82;3.15;;;;;;;15.87;82.88;100211.34;5110035;28;20471;-65
2021/08/07 01:56:37;;;;;;;13.70;3.20;;;;;;;15.79;83.12;100205.34;5110190;28;20074;-66
2021/08/07 01:59:13;;;;;;;13.35;3.38;;;;;;;15.84;83.07;100217.09;5092263;28;20150;-66
2021/08/07 02:01:44;;;;;;;7.43;3.28;;;;;;;15.85;83.78;100210.72;5109825;28;20079;-65
2021/08/07 02:04:20;;;;;;;12.45;3.30;;;;;;;15.83;83.57;100214.66;5109933;28;20062;-65
2021/08/07 02:06:56;;;;;;;10.00;3.03;;;;;;;15.85;83.94;100215.25;5109650;28;20450;-65
2021/08/07 02:09:25;;;;;;;9.27;2.95;;;;;;;15.82;83.39;100207.63;5099167;28;20046;-65
2021/08/07 02:11:56;;;;;;;8.57;2.78;;;;;;;15.80;83.47;100207.81;5110036;28;20083;-65
2021/08/07 02:14:28;;;;;;;;;;;;;;;15.83;82.84;100207.44;5109886;28;20046;-66
2021/08/07 02:17:01;;;;;;;11.25;3.90;;;;;;;15.82;82.39;100205.78;5108368;28;20023;-65
2021/08/07 02:19:30;;;;;;;14.55;4.30;;;;;;;15.79;81.03;100208.88;5107636;28;20114;-66
2021/08/07 02:21:59;;;;;;;10.80;4.10;;;;;;;15.76;82.32;100203.91;5109264;28;20052;-65
2021/08/07 02:24:27;;;;;;;16.10;4.50;;;;;;;15.71;82.42;100196.44;5108987;28;20458;-65
2021/08/07 02:26:56;;;;;;;17.13;4.63;;;;;;;15.75;82.02;100199.59;5108043;28;20048;-65
2021/08/07 02:29:23;;;;;;;12.55;4.72;;;;;;;15.70;82.64;100199.34;5109076;28;20079;-65
2021/08/07 02:32:01;;;;;;;13.63;5.22;;;;;;;15.66;82.70;100196.25;5109505;28;20514;-65
2021/08/07 02:34:30;;;;;;;11.45;4.80;;;;;;;15.67;81.89;100194.41;5107552;28;20058;-65
2021/08/07 02:37:01;;;;;;;11.93;3.90;;;;;;;15.65;82.22;100194.59;5096364;28;20035;-65
2021/08/07 02:39:33;;;;;;;;;;;;;;;15.67;81.25;100192.53;5096094;28;20048;-65
2021/08/07 02:42:01;;;;;;;8.65;2.83;;;;;;;15.66;81.35;100188.22;5093546;28;19924;-65
2021/08/07 02:44:36;;;;;;;10.13;2.92;;;;;;;15.66;81.38;100185.56;5095221;28;20545;-65
2021/08/07 02:47:03;;;;;;;6.88;2.78;;;;;;;15.66;81.89;100185.56;5093655;28;20123;-65
2021/08/07 02:49:30;;;;;;;9.25;3.17;;;;;;;15.65;82.05;100189.25;5092494;28;20032;-65
2021/08/07 02:51:58;;;;;;;10.98;2.78;;;;;;;15.68;81.10;100188.84;5094397;28;20043;-65
2021/08/07 02:54:27;;;;;;;7.20;2.80;;;;;;;15.68;81.70;100180.84;5095141;28;20404;-65
2021/08/07 02:56:54;;;;;;;8.52;2.80;;;;;;;15.69;81.82;100176.31;5095257;28;20109;-65
2021/08/07 02:59:24;;;;;;;7.78;2.53;;;;;;;15.65;82.10;100180.41;5094868;28;20040;-65
2021/08/07 03:01:51;;;;;;;8.05;2.80;;;;;;;15.67;81.94;100179.16;5095237;28;20048;-65
2021/08/07 03:04:18;;;;;;;9.77;3.00;;;;;;;15.64;81.68;100171.53;5095173;28;20044;-66
2021/08/07 03:06:47;;;;;;;9.27;2.95;;;;;;;15.63;82.02;100182.47;5093914;28;20055;-65
2021/08/07 03:09:15;;;;;;;8.48;3.03;;;;;;;15.64;82.18;100178.75;5094834;28;20049;-65
2021/08/07 03:11:45;;;;;;;10.90;3.00;;;;;;;15.61;82.37;100174.63;5095039;28;20039;-65
2021/08/07 03:14:12;;;;;;;10.48;3.00;;;;;;;15.63;82.45;100164.56;5094389;28;20046;-65
2021/08/07 03:16:39;;;;;;;7.30;2.75;;;;;;;15.63;82.41;100167.22;5095204;28;20082;-65
2021/08/07 03:19:11;;;;;;;10.00;3.13;;;;;;;15.60;82.30;100164.13;5093037;28;20401;-65
2021/08/07 03:21:38;;;;;;;11.43;2.95;;;;;;;15.61;82.31;100173.78;5095073;28;20052;-65
2021/08/07 03:24:08;;;;;;;9.77;2.97;;;;;;;15.61;82.19;100171.97;5094235;28;20048;-65
2021/08/07 03:26:38;;;;;;;;;;;;;;;15.61;82.65;100176.47;5093484;28;20389;-65
2021/08/07 03:29:14;;;;;;;7.78;2.80;;;;;;;15.58;82.92;100180.38;5094606;28;19924;-65
2021/08/07 03:31:41;;;;;;;11.10;3.20;;;;;;;15.58;82.06;100180.38;5076602;28;20044;-65
2021/08/07 03:34:09;;;;;;;10.18;3.30;;;;;;;15.55;81.84;100178.94;5093616;28;20488;-65
2021/08/07 03:36:39;;;;;;;7.45;2.70;;;;;;;15.61;82.21;100173.78;5094491;28;20072;-65
2021/08/07 03:39:07;;;;;;;9.15;3.22;;;;;;;15.55;82.10;100176.25;5092712;28;20082;-65
2021/08/07 03:41:37;;;;;;;12.82;3.30;;;;;;;15.53;82.71;100170.31;5094596;28;20079;-65
2021/08/07 03:44:08;;;;;;;10.18;3.20;;;;;;;15.55;82.41;100162.06;5090473;28;20157;-65
2021/08/07 03:46:35;;;;;;;8.45;3.20;;;;;;;15.57;82.57;100165.34;5091640;28;20138;-65
2021/08/07 03:49:02;;;;;;;12.32;3.72;;;;;;;15.60;82.65;100158.78;5090453;28;20071;-65
2021/08/07 03:51:34;;;;;;;8.68;3.22;;;;;;;15.62;82.28;100154.06;5093897;28;20040;-65
2021/08/07 03:54:01;;;;;;;12.10;3.60;;;;;;;15.56;82.29;100158.38;5093960;28;20412;-65
2021/08/07 03:56:32;;;;;;;11.20;3.85;;;;;;;15.59;82.43;100162.47;5092207;28;20038;-65
2021/08/07 03:59:03;;;;;;;9.18;3.50;;;;;;;15.57;82.55;100160.00;5093138;28;20119;-65
2021/08/07 04:01:30;;;;;;;14.15;5.82;;;;;;;15.57;82.16;100151.16;5093192;28;20052;-65
2021/08/07 04:04:00;;;;;;;10.65;3.90;;;;;;;15.57;81.50;100149.31;5093903;28;20149;-65
2021/08/07 04:06:34;;;;;;;10.45;3.60;;;;;;;15.54;82.05;100147.88;5093953;28;20097;-65
2021/08/07 04:09:04;;;;;;;11.27;3.72;;;;;;;15.57;82.66;100154.66;5093616;28;20520;-65
2021/08/07 04:11:31;;;;;;;9.52;4.00;;;;;;;15.62;82.76;100151.38;5093948;28;20048;-65
2021/08/07 04:14:02;;;;;;;10.40;3.67;;;;;;;15.63;82.05;100151.19;5091977;28;20048;-65
2021/08/07 04:16:29;;;;;;;12.73;3.72;;;;;;;15.67;82.13;100147.09;5093345;28;20183;-65
2021/08/07 04:19:02;;;;;;;8.13;3.30;;;;;;;15.66;82.00;100139.25;5093798;28;20515;-65
2021/08/07 04:21:30;;;;;;;12.23;3.70;;;;;;;15.63;82.17;100137.84;5093747;28;20147;-65
2021/08/07 04:23:57;;;;;;;10.82;3.40;;;;;;;15.65;82.32;100132.28;5093449;28;20048;-65
2021/08/07 04:26:24;;;;;;;11.57;3.70;;;;;;;15.67;82.14;100132.91;5093527;28;20036;-65
2021/08/07 04:28:51;;;;;;;10.27;4.00;;;;;;;15.63;82.46;100126.31;5091861;28;20132;-65
2021/08/07 04:31:18;;;;;;;10.40;3.53;;;;;;;15.60;81.96;100140.91;5092949;28;20046;-65
2021/08/07 04:33:45;;;;;;;10.70;3.47;;;;;;;15.50;81.02;100145.81;5092446;28;20048;-65
2021/08/07 04:36:13;;;;;;;12.30;3.60;;;;;;;15.60;82.20;100140.91;5092260;28;20040;-65
2021/08/07 04:38:41;;;;;;;14.88;3.50;;;;;;;15.59;82.50;100133.06;5093190;28;20059;-65
2021/08/07 04:41:07;;;;;;;13.77;3.72;;;;;;;15.64;82.72;100136.78;5090337;28;20059;-65
2021/08/07 04:43:37;;;;;;;15.25;3.58;;;;;;;15.73;81.02;100137.44;5092557;28;20048;-65
2021/08/07 04:46:04;;;;;;;11.70;3.90;;;;;;;15.78;81.87;100136.88;5091761;28;20072;-65
2021/08/07 04:48:30;;;;;;;11.43;3.75;;;;;;;15.77;81.18;100143.22;5090035;28;20075;-65
2021/08/07 04:51:02;;;;;;;11.27;3.60;;;;;;;15.74;81.23;100139.13;5093412;28;20044;-65
2021/08/07 04:53:33;;;;;;;10.88;3.75;;;;;;;15.71;80.61;100134.13;5092991;28;20431;-65
2021/08/07 04:56:05;;;;;;;11.18;4.00;;;;;;;15.80;81.62;100134.81;5091845;28;20500;-65
2021/08/07 04:58:32;;;;;;;12.02;3.58;;;;;;;15.74;80.89;100131.91;5091020;28;20514;-65
2021/08/07 05:00:59;;;;;;;9.80;3.55;;;;;;;15.89;80.13;100133.59;5093046;28;20382;-65
2021/08/07 05:03:26;;;;;;;10.77;3.75;;;;;;;15.87;80.58;100136.47;5091681;28;20503;-65
2021/08/07 05:05:53;;;;;;;14.52;4.05;;;;;;;15.98;80.56;100145.72;5091783;28;20500;-64
2021/08/07 05:08:21;;;;;;;11.40;4.00;;;;;;;15.94;80.82;100141.81;5092535;28;20044;-65
2021/08/07 05:10:48;;;;;;;10.98;3.70;;;;;;;15.89;79.92;100147.78;5089591;28;20044;-65
2021/08/07 05:13:15;;;;;;;10.63;4.50;;;;;;;15.87;80.88;100141.81;5093213;28;20485;-65
2021/08/07 05:15:43;;;;;;;10.32;3.35;;;;;;;15.95;80.36;100139.97;5092663;28;20050;-65
2021/08/07 05:18:10;;;;;;;11.95;3.47;;;;;;;15.99;80.52;100135.84;5092698;28;20047;-65
2021/08/07 05:20:37;;;;;;;14.23;3.90;;;;;;;15.98;80.22;100136.91;5092696;28;20054;-65
2021/08/07 05:23:05;;;;;;;9.00;3.10;;;;;;;15.85;80.03;100140.38;5091665;28;20051;-64
2021/08/07 05:25:33;;;;;;;13.98;3.25;;;;;;;15.90;80.08;100135.25;5091172;28;20421;-64
2021/08/07 05:28:00;;;;;;;11.43;3.88;;;;;;;15.98;81.19;100137.72;5092494;28;20484;-65
2021/08/07 05:30:29;;;;;;;12.60;3.58;;;;;;;16.03;81.34;100131.75;5091057;28;20055;-65
2021/08/07 05:32:59;;;;;;;9.45;3.40;;;;;;;16.02;81.09;100119.41;5092844;28;20051;-64
2021/08/07 05:35:26;;;;;;;8.07;3.70;;;;;;;16.12;82.94;100117.97;5090867;28;20048;-65
2021/08/07 05:37:54;;;;;;;11.02;3.42;;;;;;;16.15;81.32;100129.28;5092521;28;20052;-65
2021/08/07 05:40:21;;;;;;;10.98;4.00;;;;;;;16.21;82.42;100126.63;5092570;28;20044;-65
2021/08/07 05:42:50;;;;;;;9.30;3.53;;;;;;;16.23;81.92;100127.22;5092679;28;20432;-65
2021/08/07 05:45:18;;;;;;;8.90;3.70;;;;;;;16.26;81.86;100126.84;5092132;28;20113;-64
2021/08/07 05:47:45;;;;;;;12.73;3.65;;;;;;;16.31;80.68;100123.53;5074418;28;20045;-65
2021/08/07 05:50:12;;;;;;;13.05;3.42;;;;;;;16.35;81.14;100123.94;5089434;28;20040;-65
2021/08/07 05:52:40;;;;;;;9.35;3.50;;;;;;;16.34;80.37;100122.31;5092176;28;20127;-65
2021/08/07 05:55:08;;;;;;;11.77;3.63;;;;;;;16.37;80.13;100120.03;5092428;28;20059;-64
2021/08/07 05:57:37;;;;;;;11.63;3.67;;;;;;;16.42;81.03;100119.41;5092053;28;20055;-64
2021/08/07 06:00:07;;;;;;;10.10;3.30;;;;;;;16.48;79.29;100114.03;5090913;28;20119;-64
2021/08/07 06:02:53;;;;;;;12.38;3.88;;;;;;;16.45;79.57;100117.13;5091190;28;20476;-64
2021/08/07 06:05:27;;;;;;;13.57;3.42;;;;;;;16.53;79.81;100120.63;5090506;28;20124;-64
2021/08/07 06:07:54;;;;;;;12.90;3.72;;;;;;;16.60;79.39;100119.56;5092024;28;20044;-64
2021/08/07 06:10:21;;;;;;;7.25;2.67;;;;;;;16.74;76.18;100120.38;5091417;28;20044;-64
2021/08/07 06:12:49;;;;;;;12.57;3.40;;;;;;;16.72;78.96;100119.78;5094888;28;20071;-65
2021/08/07 06:15:17;;;;;;;10.18;2.97;;;;;;;16.70;76.84;100121.84;5095587;28;20420;-65
2021/08/07 06:17:44;;;;;;;9.38;3.05;;;;;;;16.82;77.07;100119.31;5095928;28;20127;-66
2021/08/07 06:20:12;;;;;;;12.90;3.65;;;;;;;16.75;77.53;100123.88;5095985;28;20047;-64
2021/08/07 06:22:44;;;;;;;9.82;2.92;;;;;;;16.75;77.48;100127.38;5096078;28;20044;-64
2021/08/07 06:25:12;;;;;;;12.45;3.30;;;;;;;16.80;78.12;100122.22;5095733;28;20139;-66
2021/08/07 06:27:39;;;;;;;9.82;3.10;;;;;;;16.83;78.76;100119.16;5095703;28;20485;-65
2021/08/07 06:30:07;;;;;;;10.98;3.38;;;;;;;16.88;78.19;100119.34;5092522;28;20097;-65
2021/08/07 06:32:35;;;;;;;20.15;3.85;;;;;;;17.03;76.00;100112.91;5094501;28;20044;-64
2021/08/07 06:35:02;;;;;;;12.68;3.50;;;;;;;16.97;77.33;100117.25;5092097;28;20047;-64
2021/08/07 06:37:29;;;;;;;12.70;3.55;;;;;;;16.91;75.76;100115.41;5095341;28;20503;-64
2021/08/07 06:39:56;;;;;;;12.90;3.30;;;;;;;16.94;76.62;100120.34;5094951;28;20051;-64
2021/08/07 06:42:23;;;;;;;12.40;3.65;;;;;;;17.12;77.24;100122.34;5095255;28;20052;-64
2021/08/07 06:44:56;;;;;;;13.73;3.35;;;;;;;17.15;75.31;100121.91;5095276;28;20461;-65
2021/08/07 06:47:24;;;;;;;8.75;3.20;;;;;;;17.18;75.32;100126.03;5095230;28;20564;-64
2021/08/07 06:49:51;;;;;;;10.40;3.33;;;;;;;17.18;76.40;100121.50;5092365;28;20562;-64
2021/08/07 06:52:18;;;;;;;14.15;3.30;;;;;;;17.25;74.71;100130.34;5095398;28;20123;-64
2021/08/07 06:54:46;;;;;;;12.35;3.17;;;;;;;17.32;75.11;100132.16;5095158;28;20044;-64
2021/08/07 06:57:16;;;;;;;9.48;3.20;;;;;;;17.24;73.84;100131.34;5094968;28;20056;-64
2021/08/07 06:59:44;;;;;;;15.77;3.42;;;;;;;17.26;75.47;100121.28;5093921;28;20127;-64
2021/08/07 07:02:11;;;;;;;11.68;3.75;;;;;;;17.39;73.12;100116.88;5095052;28;20040;-64
2021/08/07 07:04:39;;;;;;;18.50;3.88;;;;;;;17.34;73.79;100114.84;5075699;28;20040;-64
2021/08/07 07:07:06;;;;;;;12.80;3.65;;;;;;;17.44;74.83;100119.72;5094940;28;20549;-64
2021/08/07 07:09:33;;;;;;;10.82;3.85;;;;;;;17.50;72.63;100121.56;5094440;28;20052;-64
2021/08/07 07:12:01;;;;;;;18.48;4.40;;;;;;;17.47;72.94;100122.00;5095387;28;20052;-64
2021/08/07 07:14:28;;;;;;;14.38;3.95;;;;;;;17.49;73.33;100113.75;5094760;28;20416;-64
2021/08/07 07:16:56;;;;;;;14.52;3.90;;;;;;;17.62;71.73;100106.41;5094898;28;20036;-64
2021/08/07 07:19:25;;;;;;;16.35;4.10;;;;;;;17.52;72.92;100119.50;5094722;28;20086;-65
2021/08/07 07:21:52;;;;;;;13.40;3.88;;;;;;;17.56;73.68;100120.69;5093371;28;20063;-64
2021/08/07 07:24:19;;;;;;;16.40;4.43;;;;;;;17.62;73.41;100105.59;5094250;28;20483;-64
2021/08/07 07:26:45;;;;;;;14.45;4.70;;;;;;;17.64;73.60;100100.84;5094597;28;20089;-64
2021/08/07 07:29:12;;;;;;;15.10;4.25;;;;;;;17.75;73.26;100105.50;5076177;28;20044;-64
2021/08/07 07:31:40;;;;;;;14.65;4.30;;;;;;;17.79;73.39;100104.06;5092684;28;20036;-64
2021/08/07 07:34:08;;;;;;;11.70;3.88;;;;;;;17.78;71.77;100115.81;5093605;28;20035;-64
2021/08/07 07:36:35;;;;;;;14.07;3.70;;;;;;;17.85;72.20;100113.13;5094271;28;20100;-64
2021/08/07 07:39:03;;;;;;;13.77;4.05;;;;;;;17.90;71.50;100109.78;5094355;28;20056;-65
2021/08/07 07:41:30;;;;;;;13.77;4.10;;;;;;;17.98;71.23;100109.53;5093246;28;20127;-64
2021/08/07 07:43:57;;;;;;;13.85;3.97;;;;;;;18.03;72.47;100107.00;5076472;28;20086;-64
2021/08/07 07:46:24;;;;;;;12.73;3.63;;;;;;;18.09;74.09;100102.63;5091622;28;20032;-64
2021/08/07 07:48:51;;;;;;;12.65;3.50;;;;;;;18.21;73.84;100104.38;5079592;28;20048;-64
2021/08/07 07:51:18;;;;;;;9.98;3.40;;;;;;;18.30;72.51;100112.13;5093784;28;20076;-64
2021/08/07 07:53:45;;;;;;;12.30;3.20;;;;;;;18.41;71.80;100109.56;5094445;28;20097;-64
2021/08/07 07:56:12;;;;;;;14.82;3.10;;;;;;;18.36;69.17;100108.59;5092706;28;20557;-64
2021/08/07 07:58:39;;;;;;;12.88;3.40;;;;;;;18.53;70.36;100106.97;5092805;28;20044;-64
2021/08/07 08:01:05;;;;;;;11.43;3.50;;;;;;;18.52;71.37;100117.94;5093381;28;20036;-64
2021/08/07 08:03:32;;;;;;;8.85;3.45;;;;;;;18.57;71.48;100118.09;5092232;28;20048;-64
2021/08/07 08:05:59;;;;;;;9.38;3.03;;;;;;;18.71;68.33;100116.09;5092190;28;20039;-64
2021/08/07 08:08:26;;;;;;;13.32;3.60;;;;;;;18.75;69.72;100114.59;5092125;28;20447;-64
2021/08/07 08:10:53;;;;;;;14.07;3.40;;;;;;;18.82;67.53;100106.50;5093804;28;20089;-64
2021/08/07 08:13:23;;;;;;;10.27;3.10;;;;;;;18.91;68.39;100102.47;5093974;28;20409;-64
2021/08/07 08:15:51;;;;;;;17.65;2.90;;;;;;;18.97;66.93;100105.09;5086958;28;20488;-65
2021/08/07 08:18:20;;;;;;;8.20;2.67;;;;;;;18.82;66.73;100107.31;5093128;28;20078;-64
2021/08/07 08:20:47;;;;;;;14.88;2.90;;;;;;;18.70;68.20;100101.84;5093807;28;20382;-65
2021/08/07 08:23:14;;;;;;;13.32;3.00;;;;;;;18.77;68.78;100093.69;5092582;28;20113;-65
2021/08/07 08:25:42;;;;;;;11.52;2.63;;;;;;;18.94;66.96;100096.66;5092296;28;20051;-65
2021/08/07 08:28:09;;;;;;;12.98;2.65;;;;;;;18.92;67.51;100086.13;5075331;28;20101;-64
2021/08/07 08:30:39;;;;;;;9.70;2.95;;;;;;;18.97;66.93;100078.22;5092887;28;20123;-65
2021/08/07 08:33:07;;;;;;;9.90;2.80;;;;;;;19.14;66.46;100074.91;5091395;28;20036;-65
2021/08/07 08:35:34;;;;;;;14.07;3.10;;;;;;;19.25;67.85;100073.31;5093104;28;20439;-65
2021/08/07 08:38:02;;;;;;;13.55;3.10;;;;;;;19.33;64.72;100068.44;5093180;28;20051;-65
2021/08/07 08:40:29;;;;;;;12.95;3.08;;;;;;;19.45;63.94;100063.09;5092327;28;20404;-65
2021/08/07 08:42:56;;;;;;;14.80;2.97;;;;;;;19.42;63.85;100068.94;5093155;28;20176;-65
2021/08/07 08:45:25;;;;;;;11.35;2.88;;;;;;;19.43;63.02;100057.16;5092353;28;20105;-64
2021/08/07 08:47:55;;;;;;;8.82;2.72;;;;;;;19.35;62.33;100057.44;5091394;28;20534;-64
2021/08/07 08:50:22;;;;;;;11.60;2.85;;;;;;;19.25;62.97;100057.19;5089051;28;20047;-64
2021/08/07 08:52:51;;;;;;;14.45;3.10;;;;;;;19.30;62.95;100057.31;5091770;28;20040;-65
2021/08/07 08:55:19;;;;;;;14.48;2.83;;;;;;;19.50;65.39;100054.34;5093107;28;20531;-65
2021/08/07 08:57:47;;;;;;;12.80;2.85;;;;;;;19.77;62.92;100049.41;5092930;28;20044;-65
2021/08/07 09:00:15;;;;;;;11.68;2.78;;;;;;;19.62;62.40;100059.75;5091241;28;20056;-65
2021/08/07 09:02:43;;;;;;;12.68;2.85;;;;;;;19.57;62.56;100057.75;5091547;28;20466;-64
2021/08/07 09:05:14;;;;;;;11.05;2.60;;;;;;;19.52;63.61;100055.75;5091184;28;20040;-65
2021/08/07 09:07:44;;;;;;;21.98;3.15;;;;;;;19.61;61.88;100056.25;5092639;28;20050;-65
2021/08/07 09:10:12;;;;;;;12.10;2.75;;;;;;;19.55;62.64;100049.94;5092808;28;20067;-65
2021/08/07 09:15:40;;;;;;;16.83;3.42;;;;;;;19.57;62.55;100052.38;5110344;27;20657;-64
2021/08/07 09:18:21;;;;;;;12.18;3.17;;;;;;;19.58;63.47;100043.25;5091893;28;20044;-64
2021/08/07 09:20:54;;;;;;;14.18;3.30;;;;;;;19.66;63.60;100045.59;5093126;28;20048;-64
2021/08/07 09:23:32;;;;;;;14.30;3.25;;;;;;;19.63;63.50;100047.94;5110443;28;20485;-64
2021/08/07 09:26:21;;;;;;;10.30;3.22;;;;;;;19.73;64.34;100059.81;5110428;28;20040;-64
2021/08/07 09:28:55;;;;;;;8.98;2.80;;;;;;;19.81;63.61;100053.28;5091855;28;20051;-64
2021/08/07 09:31:35;;;;;;;14.63;2.97;;;;;;;19.77;62.96;100040.50;5075630;28;20434;-66
2021/08/07 09:34:20;;;;;;;10.80;2.58;;;;;;;20.03;61.68;100039.25;5075245;28;20111;-66
2021/08/07 09:36:53;;;;;;;12.43;3.15;;;;;;;20.16;61.04;100040.91;5076103;28;20134;-66
2021/08/07 09:39:40;;;;;;;14.75;2.90;;;;;;;20.45;61.46;100037.25;5110039;28;20523;-64
2021/08/07 09:42:13;;;;;;;16.83;2.90;;;;;;;20.53;59.88;100046.84;5089700;28;20135;-66
2021/08/07 09:44:40;;;;;;;12.43;2.88;;;;;;;20.45;59.78;100029.16;5089578;28;20674;-65
2021/08/07 09:47:11;;;;;;;8.68;2.80;;;;;;;20.58;62.21;100028.09;5100778;28;20094;-65
2021/08/07 09:49:43;;;;;;;13.48;2.92;;;;;;;20.66;58.69;100025.03;5106968;28;20044;-65
2021/08/07 09:52:11;;;;;;;9.57;2.60;;;;;;;20.70;56.85;100033.47;5108519;28;20052;-65
2021/08/07 09:54:42;;;;;;;13.25;2.78;;;;;;;20.90;56.26;100038.47;5054676;28;20050;-66
2021/08/07 09:57:28;;;;;;;8.52;2.42;;;;;;;21.25;55.81;100038.34;5038711;28;20066;-65
2021/08/07 09:59:58;;;;;;;10.07;2.25;;;;;;;21.38;52.12;100031.81;5089196;28;20465;-65
2021/08/07 10:02:31;;;;;;;13.25;2.38;;;;;;;21.63;53.87;100028.78;5088805;28;20119;-66
2021/08/07 10:05:03;;;;;;;17.17;2.58;;;;;;;21.51;53.53;100033.41;5070320;28;20040;-65
2021/08/07 10:07:30;;;;;;;14.65;2.85;;;;;;;21.53;53.64;100038.59;5071002;28;20040;-66
2021/08/07 10:10:00;;;;;;;12.18;2.40;;;;;;;21.50;52.70;100037.16;5089021;28;20045;-66
2021/08/07 10:12:28;;;;;;;10.35;2.60;;;;;;;21.54;53.91;100035.63;5054354;28;20447;-66
2021/08/07 10:15:00;;;;;;;9.77;3.03;;;;;;;21.62;53.63;100018.22;5088016;28;20055;-65
2021/08/07 10:17:29;;;;;;;15.13;2.45;;;;;;;21.79;53.39;100027.16;5088812;28;20052;-65
2021/08/07 10:19:58;;;;;;;14.38;2.83;;;;;;;21.77;51.61;100012.25;5089083;28;20044;-66
2021/08/07 10:22:27;;;;;;;10.80;2.47;;;;;;;21.85;51.45;100018.06;5088988;28;20072;-65
2021/08/07 10:25:02;;;;;;;10.20;2.13;;;;;;;22.11;50.07;100004.94;5085397;28;20420;-65
2021/08/07 10:27:32;;;;;;;13.43;3.05;;;;;;;22.53;52.34;100011.75;5077219;28;20036;-66
2021/08/07 10:30:03;;;;;;;9.40;2.10;;;;;;;22.03;49.85;99986.47;5075290;28;20048;-66
2021/08/07 10:32:38;;;;;;;11.05;2.40;;;;;;;22.10;51.97;99991.69;5074328;28;20132;-66
2021/08/07 10:35:08;;;;;;;10.65;2.30;;;;;;;22.03;51.30;99989.97;5092217;28;20060;-66
2021/08/07 10:37:38;;;;;;;9.10;2.38;;;;;;;22.43;49.95;99974.63;5095306;28;20500;-67
2021/08/07 10:40:08;;;;;;;10.20;2.40;;;;;;;22.46;49.16;99984.09;5094818;28;20048;-66
2021/08/07 10:42:36;;;;;;;11.00;2.60;;;;;;;22.54;49.04;99979.06;5095687;28;20044;-67
2021/08/07 10:45:07;;;;;;;8.38;2.45;;;;;;;22.57;49.57;99967.72;5095437;28;20040;-66
2021/08/07 10:47:39;;;;;;;10.65;2.30;;;;;;;22.60;49.93;99967.25;5089099;28;20043;-66
2021/08/07 10:53:05;;;;;;;9.02;2.08;;;;;;;21.87;49.08;99958.44;5089777;28;20903;-66
2021/08/07 10:55:52;;;;;;;10.82;2.30;;;;;;;21.57;50.99;99962.28;5089999;28;20549;-66
2021/08/07 10:58:43;;;;;;;11.25;2.50;;;;;;;21.52;51.43;99958.69;5087813;28;20447;-66
2021/08/07 11:04:23;;;;;;;13.15;2.70;;;;;;;21.19;52.06;99962.97;5088591;27;20377;-65
2021/08/07 11:06:53;;;;;;;10.05;2.30;;;;;;;21.06;53.32;99964.09;5088870;28;20056;-65
2021/08/07 11:09:25;;;;;;;10.18;2.50;;;;;;;20.92;54.19;99968.97;5089222;28;20048;-65
2021/08/07 11:14:51;;;;;;;10.95;2.45;;;;;;;20.82;53.54;99971.47;5110453;27;20366;-65
2021/08/07 11:25:17;;;;;;;10.30;2.25;;;;;;;20.67;51.93;99972.00;5110451;27;20125;-66
2021/08/07 11:38:23;;;;;;;8.73;2.38;;;;;;;20.83;50.81;99965.00;5130497;27;20382;-64
2021/08/07 11:40:56;;;;;;;10.27;2.10;;;;;;;20.98;51.50;99946.44;5130440;27;20031;-65
2021/08/07 11:43:43;;;;;;;11.02;2.25;;;;;;;21.16;50.71;99939.19;5129047;28;20054;-65
2021/08/07 11:46:12;;;;;;;10.57;1.95;;;;;;;21.08;49.95;99946.63;5126213;27;20131;-65
2021/08/07 11:48:42;;;;;;;9.88;2.30;;;;;;;21.04;50.78;99947.34;5107707;28;20050;-65
2021/08/07 11:51:13;;;;;;;9.73;2.15;;;;;;;21.05;50.18;99943.59;5108377;28;20043;-65
2021/08/07 11:53:47;;;;;;;9.20;2.10;;;;;;;21.40;50.96;99940.66;5110306;28;20676;-65
2021/08/07 11:56:18;;;;;;;11.95;1.95;;;;;;;21.77;49.51;99937.47;5109993;28;20427;-65
2021/08/07 11:58:47;;;;;;;9.38;2.05;;;;;;;22.11;48.86;99937.41;5110176;28;20071;-65
2021/08/07 12:01:16;;;;;;;9.63;2.08;;;;;;;22.47;47.40;99939.81;5108996;28;20449;-65
2021/08/07 12:03:48;;;;;;;6.68;1.95;;;;;;;22.84;45.20;99929.09;5108362;28;20044;-65
2021/08/07 12:06:20;;;;;;;8.88;1.85;;;;;;;23.19;45.06;99934.09;5110028;28;20054;-65
2021/08/07 12:08:48;;;;;;;7.53;1.90;;;;;;;23.30;43.72;99924.16;5119658;28;20071;-65
2021/08/07 12:11:18;;;;;;;9.55;2.00;;;;;;;23.30;44.60;99924.16;5130514;27;20039;-65